sensor_id;sensor_type;location;lat;lon;timestamp;pressure;altitude;pressure_sealevel;temperature;humidity
72124;BME280;63818;37.134;-8.548;2023-03-21T00:03:07;101653.9;;;17.6;60.1
72124;BME280;63818;37.134;-8.548;2023-03-21T00:08:01;101658.4;;;17.6;61.1
72124;BME280;63818;37.134;-8.548;2023-03-21T00:12:48;101661.1;;;17.6;62.0
72124;BME280;63818;37.134;-8.548;2023-03-21T00:17:34;101665.9;;;17.5;63.0
72124;BME280;63818;37.134;-8.548;2023-03-21T00:22:23;101670.9;;;17.5;62.9
72124;BME280;63818;37.134;-8.548;2023-03-21T00:27:12;101657.8;;;17.4;63.1
72124;BME280;63818;37.134;-8.548;2023-03-21T00:31:58;101657.2;;;17.4;63.1
72124;BME280;63818;37.134;-8.548;2023-03-21T00:36:44;101650.7;;;17.4;63.7
72124;BME280;63818;37.134;-8.548;2023-03-21T00:41:33;101652.8;;;17.3;64.2
72124;BME280;63818;37.134;-8.548;2023-03-21T00:46:19;101660.5;;;17.3;65.1
72124;BME280;63818;37.134;-8.548;2023-03-21T00:51:10;101655.2;;;17.2;65.3
72124;BME280;63818;37.134;-8.548;2023-03-21T00:56:04;101643.5;;;17.2;65.7
72124;BME280;63818;37.134;-8.548;2023-03-21T01:00:50;101651.1;;;17.2;66.0
72124;BME280;63818;37.134;-8.548;2023-03-21T01:05:38;101641.1;;;17.1;66.3
72124;BME280;63818;37.134;-8.548;2023-03-21T01:10:24;101635.1;;;17.0;66.1
72124;BME280;63818;37.134;-8.548;2023-03-21T01:15:10;101629.5;;;17.0;66.4
72124;BME280;63818;37.134;-8.548;2023-03-21T01:19:56;101635.2;;;17.0;66.1
72124;BME280;63818;37.134;-8.548;2023-03-21T01:24:42;101632.5;;;17.0;65.9
72124;BME280;63818;37.134;-8.548;2023-03-21T01:29:29;101622.2;;;17.0;66.1
72124;BME280;63818;37.134;-8.548;2023-03-21T01:34:15;101614.3;;;17.0;65.9
72124;BME280;63818;37.134;-8.548;2023-03-21T01:39:02;101613.1;;;17.0;66.2
72124;BME280;63818;37.134;-8.548;2023-03-21T01:43:48;101611.8;;;17.0;66.1
72124;BME280;63818;37.134;-8.548;2023-03-21T01:48:37;101606.7;;;16.9;66.2
72124;BME280;63818;37.134;-8.548;2023-03-21T01:53:26;101599.0;;;17.0;66.3
72124;BME280;63818;37.134;-8.548;2023-03-21T01:58:17;101591.5;;;16.9;66.3
72124;BME280;63818;37.134;-8.548;2023-03-21T02:03:09;101587.2;;;16.9;66.4
72124;BME280;63818;37.134;-8.548;2023-03-21T02:07:55;101576.7;;;16.9;66.3
72124;BME280;63818;37.134;-8.548;2023-03-21T02:12:42;101577.5;;;16.9;66.2
72124;BME280;63818;37.134;-8.548;2023-03-21T02:17:32;101568.6;;;16.9;66.1
72124;BME280;63818;37.134;-8.548;2023-03-21T02:22:28;101566.1;;;16.9;66.1
72124;BME280;63818;37.134;-8.548;2023-03-21T02:27:20;101565.9;;;16.8;66.0
72124;BME280;63818;37.134;-8.548;2023-03-21T02:32:12;101551.9;;;16.8;65.7
72124;BME280;63818;37.134;-8.548;2023-03-21T02:37:12;101563.9;;;16.8;66.0
72124;BME280;63818;37.134;-8.548;2023-03-21T02:42:06;101550.9;;;16.8;66.0
72124;BME280;63818;37.134;-8.548;2023-03-21T02:46:58;101549.2;;;16.7;65.6
72124;BME280;63818;37.134;-8.548;2023-03-21T02:51:50;101539.1;;;16.7;66.0
72124;BME280;63818;37.134;-8.548;2023-03-21T02:56:36;101539.8;;;16.7;65.8
72124;BME280;63818;37.134;-8.548;2023-03-21T03:01:25;101524.7;;;16.7;66.1
72124;BME280;63818;37.134;-8.548;2023-03-21T03:06:17;101535.0;;;16.7;66.1
72124;BME280;63818;37.134;-8.548;2023-03-21T03:11:11;101533.1;;;16.7;65.9
72124;BME280;63818;37.134;-8.548;2023-03-21T03:16:09;101523.6;;;16.6;66.1
72124;BME280;63818;37.134;-8.548;2023-03-21T03:21:04;101523.4;;;16.6;66.4
72124;BME280;63818;37.134;-8.548;2023-03-21T03:25:57;101528.7;;;16.6;66.5
72124;BME280;63818;37.134;-8.548;2023-03-21T03:30:47;101534.9;;;16.6;66.6
72124;BME280;63818;37.134;-8.548;2023-03-21T03:35:34;101528.8;;;16.6;66.4
72124;BME280;63818;37.134;-8.548;2023-03-21T03:40:25;101528.3;;;16.6;66.8
72124;BME280;63818;37.134;-8.548;2023-03-21T03:45:13;101530.4;;;16.6;66.6
72124;BME280;63818;37.134;-8.548;2023-03-21T03:50:04;101530.8;;;16.6;66.4
72124;BME280;63818;37.134;-8.548;2023-03-21T03:54:57;101534.0;;;16.5;66.8
72124;BME280;63818;37.134;-8.548;2023-03-21T03:59:44;101527.8;;;16.4;66.9
72124;BME280;63818;37.134;-8.548;2023-03-21T04:04:31;101530.7;;;16.4;66.8
72124;BME280;63818;37.134;-8.548;2023-03-21T04:09:17;101529.1;;;16.4;66.8
72124;BME280;63818;37.134;-8.548;2023-03-21T04:14:05;101527.8;;;16.4;66.9
72124;BME280;63818;37.134;-8.548;2023-03-21T04:18:51;101537.0;;;16.4;66.9
72124;BME280;63818;37.134;-8.548;2023-03-21T04:23:37;101528.4;;;16.5;65.5
72124;BME280;63818;37.134;-8.548;2023-03-21T04:28:26;101518.8;;;16.5;64.8
72124;BME280;63818;37.134;-8.548;2023-03-21T04:33:12;101511.3;;;16.5;64.9
72124;BME280;63818;37.134;-8.548;2023-03-21T04:38:01;101512.8;;;16.4;64.8
72124;BME280;63818;37.134;-8.548;2023-03-21T04:42:47;101506.2;;;16.4;64.4
72124;BME280;63818;37.134;-8.548;2023-03-21T04:47:37;101519.8;;;16.4;63.0
72124;BME280;63818;37.134;-8.548;2023-03-21T04:52:23;101517.1;;;16.4;62.5
72124;BME280;63818;37.134;-8.548;2023-03-21T04:57:14;101515.0;;;16.4;61.7
72124;BME280;63818;37.134;-8.548;2023-03-21T05:02:00;101513.3;;;16.4;61.6
72124;BME280;63818;37.134;-8.548;2023-03-21T05:06:47;101511.0;;;16.4;61.6
72124;BME280;63818;37.134;-8.548;2023-03-21T05:11:37;101520.6;;;16.4;61.5
72124;BME280;63818;37.134;-8.548;2023-03-21T05:16:23;101519.0;;;16.4;61.7
72124;BME280;63818;37.134;-8.548;2023-03-21T05:21:09;101512.2;;;16.4;61.4
72124;BME280;63818;37.134;-8.548;2023-03-21T05:26:02;101525.7;;;16.4;61.0
72124;BME280;63818;37.134;-8.548;2023-03-21T05:30:48;101526.2;;;16.4;60.1
72124;BME280;63818;37.134;-8.548;2023-03-21T05:35:41;101520.6;;;16.5;59.4
72124;BME280;63818;37.134;-8.548;2023-03-21T05:40:27;101519.1;;;16.5;59.1
72124;BME280;63818;37.134;-8.548;2023-03-21T05:45:14;101518.0;;;16.5;58.3
72124;BME280;63818;37.134;-8.548;2023-03-21T05:50:01;101515.1;;;16.5;58.1
72124;BME280;63818;37.134;-8.548;2023-03-21T05:54:49;101516.3;;;16.4;57.5
72124;BME280;63818;37.134;-8.548;2023-03-21T05:59:38;101515.5;;;16.4;57.4
72124;BME280;63818;37.134;-8.548;2023-03-21T06:04:24;101522.7;;;16.4;57.4
72124;BME280;63818;37.134;-8.548;2023-03-21T06:09:13;101522.5;;;16.4;57.3
72124;BME280;63818;37.134;-8.548;2023-03-21T06:14:03;101507.7;;;16.3;56.9
72124;BME280;63818;37.134;-8.548;2023-03-21T06:18:51;101524.8;;;16.3;56.7
72124;BME280;63818;37.134;-8.548;2023-03-21T06:23:38;101525.6;;;16.3;56.3
72124;BME280;63818;37.134;-8.548;2023-03-21T06:28:26;101533.6;;;16.3;55.9
72124;BME280;63818;37.134;-8.548;2023-03-21T06:33:13;101535.2;;;16.3;55.6
72124;BME280;63818;37.134;-8.548;2023-03-21T06:38:02;101529.4;;;16.3;55.3
72124;BME280;63818;37.134;-8.548;2023-03-21T06:42:48;101531.0;;;16.3;55.0
72124;BME280;63818;37.134;-8.548;2023-03-21T06:47:34;101528.6;;;16.3;54.6
72124;BME280;63818;37.134;-8.548;2023-03-21T06:52:20;101537.9;;;16.3;54.1
72124;BME280;63818;37.134;-8.548;2023-03-21T06:57:08;101539.5;;;16.3;53.9
72124;BME280;63818;37.134;-8.548;2023-03-21T07:01:55;101539.5;;;16.3;53.9
72124;BME280;63818;37.134;-8.548;2023-03-21T07:06:41;101539.6;;;16.4;53.6
72124;BME280;63818;37.134;-8.548;2023-03-21T07:11:31;101532.0;;;16.4;53.4
72124;BME280;63818;37.134;-8.548;2023-03-21T07:16:18;101533.5;;;16.4;53.4
72124;BME280;63818;37.134;-8.548;2023-03-21T07:21:09;101542.1;;;16.4;53.0
72124;BME280;63818;37.134;-8.548;2023-03-21T07:25:55;101541.8;;;16.4;52.9
72124;BME280;63818;37.134;-8.548;2023-03-21T07:30:42;101550.6;;;16.4;52.9
72124;BME280;63818;37.134;-8.548;2023-03-21T07:35:28;101542.5;;;16.4;52.6
72124;BME280;63818;37.134;-8.548;2023-03-21T07:40:15;101536.8;;;16.5;52.9
72124;BME280;63818;37.134;-8.548;2023-03-21T07:45:01;101537.0;;;16.5;52.8
72124;BME280;63818;37.134;-8.548;2023-03-21T07:49:50;101534.0;;;16.5;52.7
72124;BME280;63818;37.134;-8.548;2023-03-21T07:54:36;101530.1;;;16.5;52.4
72124;BME280;63818;37.134;-8.548;2023-03-21T07:59:28;101543.5;;;16.6;53.0
72124;BME280;63818;37.134;-8.548;2023-03-21T08:04:14;101537.4;;;16.6;53.2
72124;BME280;63818;37.134;-8.548;2023-03-21T08:09:00;101540.3;;;16.6;53.5
72124;BME280;63818;37.134;-8.548;2023-03-21T08:13:46;101541.2;;;16.7;53.8
72124;BME280;63818;37.134;-8.548;2023-03-21T08:18:34;101548.7;;;16.7;53.8
72124;BME280;63818;37.134;-8.548;2023-03-21T08:23:43;101554.6;;;16.7;54.1
72124;BME280;63818;37.134;-8.548;2023-03-21T08:28:30;101559.5;;;16.8;54.9
72124;BME280;63818;37.134;-8.548;2023-03-21T08:33:16;101561.1;;;16.8;54.8
72124;BME280;63818;37.134;-8.548;2023-03-21T08:38:03;101564.5;;;16.9;55.7
72124;BME280;63818;37.134;-8.548;2023-03-21T08:42:52;101568.4;;;16.9;56.4
72124;BME280;63818;37.134;-8.548;2023-03-21T08:47:38;101565.9;;;16.9;56.7
72124;BME280;63818;37.134;-8.548;2023-03-21T08:52:24;101570.6;;;16.9;56.7
72124;BME280;63818;37.134;-8.548;2023-03-21T08:57:10;101568.1;;;17.0;56.1
72124;BME280;63818;37.134;-8.548;2023-03-21T09:01:59;101572.0;;;17.0;56.3
72124;BME280;63818;37.134;-8.548;2023-03-21T09:06:45;101573.3;;;17.0;56.0
72124;BME280;63818;37.134;-8.548;2023-03-21T09:11:32;101581.6;;;17.1;55.9
72124;BME280;63818;37.134;-8.548;2023-03-21T09:16:18;101573.2;;;17.1;55.4
72124;BME280;63818;37.134;-8.548;2023-03-21T09:21:07;101576.4;;;17.1;54.2
72124;BME280;63818;37.134;-8.548;2023-03-21T09:25:53;101574.6;;;17.2;53.5
72124;BME280;63818;37.134;-8.548;2023-03-21T09:30:48;101581.8;;;17.2;52.8
72124;BME280;63818;37.134;-8.548;2023-03-21T09:35:34;101581.9;;;17.2;52.4
72124;BME280;63818;37.134;-8.548;2023-03-21T09:40:26;101583.3;;;17.3;52.2
72124;BME280;63818;37.134;-8.548;2023-03-21T09:45:20;101582.3;;;17.4;51.4
72124;BME280;63818;37.134;-8.548;2023-03-21T09:50:14;101583.2;;;17.5;50.6
72124;BME280;63818;37.134;-8.548;2023-03-21T09:55:01;101587.6;;;17.5;50.2
72124;BME280;63818;37.134;-8.548;2023-03-21T10:00:02;101601.7;;;17.5;52.5
72124;BME280;63818;37.134;-8.548;2023-03-21T10:04:49;101607.6;;;17.6;53.5
72124;BME280;63818;37.134;-8.548;2023-03-21T10:09:35;101594.4;;;17.6;54.9
72124;BME280;63818;37.134;-8.548;2023-03-21T10:14:24;101593.8;;;17.6;55.2
72124;BME280;63818;37.134;-8.548;2023-03-21T10:19:30;101585.6;;;17.6;56.4
72124;BME280;63818;37.134;-8.548;2023-03-21T10:24:19;101600.4;;;17.6;57.3
72124;BME280;63818;37.134;-8.548;2023-03-21T10:30:04;101602.3;;;17.6;58.1
72124;BME280;63818;37.134;-8.548;2023-03-21T10:34:53;101595.5;;;17.7;57.7
72124;BME280;63818;37.134;-8.548;2023-03-21T10:39:47;101575.8;;;17.7;56.0
72124;BME280;63818;37.134;-8.548;2023-03-21T10:44:34;101584.2;;;17.8;55.7
72124;BME280;63818;37.134;-8.548;2023-03-21T10:49:33;101586.0;;;17.8;55.4
72124;BME280;63818;37.134;-8.548;2023-03-21T10:54:25;101577.4;;;17.8;55.1
72124;BME280;63818;37.134;-8.548;2023-03-21T10:59:19;101580.7;;;17.9;56.7
72124;BME280;63818;37.134;-8.548;2023-03-21T11:04:09;101586.4;;;17.8;59.0
72124;BME280;63818;37.134;-8.548;2023-03-21T11:10:37;101580.8;;;17.8;57.8
72124;BME280;63818;37.134;-8.548;2023-03-21T11:15:31;101587.4;;;17.8;59.7
72124;BME280;63818;37.134;-8.548;2023-03-21T11:20:18;101583.6;;;17.7;60.3
72124;BME280;63818;37.134;-8.548;2023-03-21T11:25:07;101585.5;;;17.8;60.9
72124;BME280;63818;37.134;-8.548;2023-03-21T11:29:56;101584.5;;;17.8;61.2
72124;BME280;63818;37.134;-8.548;2023-03-21T11:35:16;101588.8;;;17.9;61.6
72124;BME280;63818;37.134;-8.548;2023-03-21T11:40:21;101592.1;;;17.9;60.5
72124;BME280;63818;37.134;-8.548;2023-03-21T11:45:14;101580.5;;;17.9;58.5
72124;BME280;63818;37.134;-8.548;2023-03-21T11:57:24;101560.2;;;18.1;55.1
72124;BME280;63818;37.134;-8.548;2023-03-21T12:07:52;101559.5;;;18.0;56.9
72124;BME280;63818;37.134;-8.548;2023-03-21T12:13:40;101557.9;;;18.0;55.7
72124;BME280;63818;37.134;-8.548;2023-03-21T12:18:42;101536.5;;;18.0;53.5
72124;BME280;63818;37.134;-8.548;2023-03-21T12:30:32;101528.9;;;18.2;52.3
72124;BME280;63818;37.134;-8.548;2023-03-21T12:37:46;101510.8;;;18.2;52.8
72124;BME280;63818;37.134;-8.548;2023-03-21T12:42:55;101511.0;;;18.3;53.0
72124;BME280;63818;37.134;-8.548;2023-03-21T12:47:50;101516.1;;;18.3;54.5
72124;BME280;63818;37.134;-8.548;2023-03-21T12:54:06;101517.8;;;18.4;54.9
72124;BME280;63818;37.134;-8.548;2023-03-21T12:58:59;101517.2;;;18.4;55.7
72124;BME280;63818;37.134;-8.548;2023-03-21T13:03:58;101511.2;;;18.5;55.6
72124;BME280;63818;37.134;-8.548;2023-03-21T13:08:49;101502.7;;;18.5;55.2
72124;BME280;63818;37.134;-8.548;2023-03-21T13:13:56;101498.2;;;18.5;57.9
72124;BME280;63818;37.134;-8.548;2023-03-21T13:18:53;101506.4;;;18.5;59.2
72124;BME280;63818;37.134;-8.548;2023-03-21T13:24:16;101504.1;;;18.6;60.7
72124;BME280;63818;37.134;-8.548;2023-03-21T13:29:18;101489.4;;;18.6;59.1
72124;BME280;63818;37.134;-8.548;2023-03-21T13:34:29;101492.0;;;18.6;58.5
72124;BME280;63818;37.134;-8.548;2023-03-21T13:39:19;101472.1;;;18.8;57.7
72124;BME280;63818;37.134;-8.548;2023-03-21T13:44:30;101469.1;;;18.9;57.8
72124;BME280;63818;37.134;-8.548;2023-03-21T13:49:27;101459.4;;;19.1;58.7
72124;BME280;63818;37.134;-8.548;2023-03-21T13:54:19;101455.5;;;19.2;58.2
72124;BME280;63818;37.134;-8.548;2023-03-21T13:59:19;101445.9;;;19.3;58.1
72124;BME280;63818;37.134;-8.548;2023-03-21T14:04:13;101435.7;;;19.4;58.0
72124;BME280;63818;37.134;-8.548;2023-03-21T14:08:59;101429.8;;;19.5;58.0
72124;BME280;63818;37.134;-8.548;2023-03-21T14:13:57;101435.7;;;19.5;58.2
72124;BME280;63818;37.134;-8.548;2023-03-21T14:18:50;101433.9;;;19.6;58.6
72124;BME280;63818;37.134;-8.548;2023-03-21T14:23:39;101435.7;;;19.6;58.8
72124;BME280;63818;37.134;-8.548;2023-03-21T14:28:26;101422.2;;;19.7;59.3
72124;BME280;63818;37.134;-8.548;2023-03-21T14:33:24;101424.5;;;19.9;57.7
72124;BME280;63818;37.134;-8.548;2023-03-21T14:38:18;101410.6;;;20.1;56.7
72124;BME280;63818;37.134;-8.548;2023-03-21T14:43:56;101381.4;;;20.3;52.9
72124;BME280;63818;37.134;-8.548;2023-03-21T14:48:35;101397.0;;;20.5;51.2
72124;BME280;63818;37.134;-8.548;2023-03-21T14:53:24;101379.6;;;20.7;51.5
72124;BME280;63818;37.134;-8.548;2023-03-21T14:58:15;101385.2;;;20.8;51.2
72124;BME280;63818;37.134;-8.548;2023-03-21T15:03:12;101381.9;;;21.1;49.4
72124;BME280;63818;37.134;-8.548;2023-03-21T15:08:13;101359.7;;;22.0;45.9
72124;BME280;63818;37.134;-8.548;2023-03-21T15:13:15;101337.5;;;25.1;39.0
72124;BME280;63818;37.134;-8.548;2023-03-21T15:18:05;101332.5;;;27.4;33.6
72124;BME280;63818;37.134;-8.548;2023-03-21T15:22:54;101305.0;;;28.1;33.2
72124;BME280;63818;37.134;-8.548;2023-03-21T15:27:42;101319.4;;;29.1;31.9
72124;BME280;63818;37.134;-8.548;2023-03-21T15:32:30;101299.2;;;28.6;31.8
72124;BME280;63818;37.134;-8.548;2023-03-21T15:37:22;101310.8;;;28.8;30.6
72124;BME280;63818;37.134;-8.548;2023-03-21T15:42:25;101292.5;;;29.6;29.2
72124;BME280;63818;37.134;-8.548;2023-03-21T15:47:13;101305.3;;;29.8;29.1
72124;BME280;63818;37.134;-8.548;2023-03-21T15:52:08;101303.7;;;30.2;27.6
72124;BME280;63818;37.134;-8.548;2023-03-21T15:56:59;101286.5;;;30.2;27.2
72124;BME280;63818;37.134;-8.548;2023-03-21T16:01:47;101294.4;;;30.3;26.4
72124;BME280;63818;37.134;-8.548;2023-03-21T16:06:35;101274.7;;;30.8;24.9
72124;BME280;63818;37.134;-8.548;2023-03-21T16:11:28;101275.3;;;30.8;24.8
72124;BME280;63818;37.134;-8.548;2023-03-21T16:16:20;101271.9;;;30.2;24.9
72124;BME280;63818;37.134;-8.548;2023-03-21T16:21:11;101276.5;;;29.5;26.5
72124;BME280;63818;37.134;-8.548;2023-03-21T16:25:57;101277.9;;;28.6;25.9
72124;BME280;63818;37.134;-8.548;2023-03-21T16:30:45;101269.9;;;27.7;26.8
72124;BME280;63818;37.134;-8.548;2023-03-21T16:35:30;101268.1;;;26.5;28.8
72124;BME280;63818;37.134;-8.548;2023-03-21T16:40:22;101271.5;;;26.0;29.5
72124;BME280;63818;37.134;-8.548;2023-03-21T16:45:10;101292.8;;;25.6;30.1
72124;BME280;63818;37.134;-8.548;2023-03-21T16:49:58;101296.7;;;25.0;30.7
72124;BME280;63818;37.134;-8.548;2023-03-21T16:54:46;101279.0;;;24.8;30.2
72124;BME280;63818;37.134;-8.548;2023-03-21T16:59:34;101282.1;;;24.5;30.7
72124;BME280;63818;37.134;-8.548;2023-03-21T17:04:21;101281.2;;;24.4;30.4
72124;BME280;63818;37.134;-8.548;2023-03-21T17:09:10;101280.0;;;24.3;30.5
72124;BME280;63818;37.134;-8.548;2023-03-21T17:13:59;101288.4;;;23.9;29.9
72124;BME280;63818;37.134;-8.548;2023-03-21T17:18:47;101289.9;;;23.7;29.4
72124;BME280;63818;37.134;-8.548;2023-03-21T17:23:33;101302.0;;;23.6;29.4
72124;BME280;63818;37.134;-8.548;2023-03-21T17:28:22;101310.0;;;23.3;30.9
72124;BME280;63818;37.134;-8.548;2023-03-21T17:33:08;101300.3;;;23.1;33.4
72124;BME280;63818;37.134;-8.548;2023-03-21T17:37:55;101319.8;;;23.0;35.6
72124;BME280;63818;37.134;-8.548;2023-03-21T17:42:41;101348.3;;;22.6;38.9
72124;BME280;63818;37.134;-8.548;2023-03-21T17:47:28;101362.5;;;22.4;41.2
72124;BME280;63818;37.134;-8.548;2023-03-21T17:52:16;101363.0;;;22.1;42.1
72124;BME280;63818;37.134;-8.548;2023-03-21T17:57:02;101372.7;;;21.9;44.4
72124;BME280;63818;37.134;-8.548;2023-03-21T18:01:51;101394.9;;;21.5;46.6
72124;BME280;63818;37.134;-8.548;2023-03-21T18:06:38;101389.4;;;21.4;49.4
72124;BME280;63818;37.134;-8.548;2023-03-21T18:11:24;101393.1;;;21.2;50.7
72124;BME280;63818;37.134;-8.548;2023-03-21T18:16:13;101423.2;;;21.0;52.2
72124;BME280;63818;37.134;-8.548;2023-03-21T18:20:59;101411.1;;;20.7;54.1
72124;BME280;63818;37.134;-8.548;2023-03-21T18:25:45;101422.0;;;20.4;56.1
72124;BME280;63818;37.134;-8.548;2023-03-21T18:30:31;101398.5;;;20.2;57.0
72124;BME280;63818;37.134;-8.548;2023-03-21T18:35:18;101419.3;;;20.1;57.8
72124;BME280;63818;37.134;-8.548;2023-03-21T18:40:07;101407.3;;;19.9;58.2
72124;BME280;63818;37.134;-8.548;2023-03-21T18:44:53;101414.2;;;19.6;58.9
72124;BME280;63818;37.134;-8.548;2023-03-21T18:49:40;101405.3;;;19.4;60.0
72124;BME280;63818;37.134;-8.548;2023-03-21T18:54:26;101419.0;;;19.3;60.7
72124;BME280;63818;37.134;-8.548;2023-03-21T18:59:12;101407.3;;;19.3;60.9
72124;BME280;63818;37.134;-8.548;2023-03-21T19:03:58;101413.0;;;19.2;61.2
72124;BME280;63818;37.134;-8.548;2023-03-21T19:08:44;101412.4;;;19.1;61.5
72124;BME280;63818;37.134;-8.548;2023-03-21T19:13:30;101422.4;;;19.1;61.3
72124;BME280;63818;37.134;-8.548;2023-03-21T19:18:16;101412.2;;;19.0;61.4
72124;BME280;63818;37.134;-8.548;2023-03-21T19:23:06;101424.5;;;19.0;60.7
72124;BME280;63818;37.134;-8.548;2023-03-21T19:27:52;101430.8;;;18.9;61.0
72124;BME280;63818;37.134;-8.548;2023-03-21T19:32:38;101427.6;;;18.9;61.0
72124;BME280;63818;37.134;-8.548;2023-03-21T19:37:24;101423.2;;;18.8;60.6
72124;BME280;63818;37.134;-8.548;2023-03-21T19:42:13;101434.2;;;18.7;60.7
72124;BME280;63818;37.134;-8.548;2023-03-21T19:46:58;101434.6;;;18.7;60.7
72124;BME280;63818;37.134;-8.548;2023-03-21T19:51:45;101432.5;;;18.7;60.4
72124;BME280;63818;37.134;-8.548;2023-03-21T19:56:31;101426.8;;;18.7;59.6
72124;BME280;63818;37.134;-8.548;2023-03-21T20:01:17;101435.3;;;18.7;59.2
72124;BME280;63818;37.134;-8.548;2023-03-21T20:06:06;101434.5;;;18.5;59.0
72124;BME280;63818;37.134;-8.548;2023-03-21T20:10:53;101425.2;;;18.4;58.5
72124;BME280;63818;37.134;-8.548;2023-03-21T20:15:39;101434.8;;;18.4;58.9
72124;BME280;63818;37.134;-8.548;2023-03-21T20:20:25;101444.3;;;18.5;58.2
72124;BME280;63818;37.134;-8.548;2023-03-21T20:25:12;101444.5;;;18.5;57.8
72124;BME280;63818;37.134;-8.548;2023-03-21T20:29:59;101449.8;;;18.6;57.5
72124;BME280;63818;37.134;-8.548;2023-03-21T20:34:45;101464.1;;;18.7;56.9
72124;BME280;63818;37.134;-8.548;2023-03-21T20:39:34;101464.7;;;18.6;57.0
72124;BME280;63818;37.134;-8.548;2023-03-21T20:44:23;101469.4;;;18.6;56.6
72124;BME280;63818;37.134;-8.548;2023-03-21T20:49:12;101469.1;;;18.7;56.4
72124;BME280;63818;37.134;-8.548;2023-03-21T20:53:58;101470.5;;;18.6;56.4
72124;BME280;63818;37.134;-8.548;2023-03-21T20:58:48;101467.3;;;18.6;56.0
72124;BME280;63818;37.134;-8.548;2023-03-21T21:03:38;101471.5;;;18.6;56.0
72124;BME280;63818;37.134;-8.548;2023-03-21T21:08:24;101469.6;;;18.6;56.0
72124;BME280;63818;37.134;-8.548;2023-03-21T21:13:11;101477.1;;;18.6;55.9
72124;BME280;63818;37.134;-8.548;2023-03-21T21:17:59;101474.1;;;18.6;55.5
72124;BME280;63818;37.134;-8.548;2023-03-21T21:27:32;101505.5;;;18.5;57.5
72124;BME280;63818;37.134;-8.548;2023-03-21T21:32:22;101510.6;;;18.4;59.3
72124;BME280;63818;37.134;-8.548;2023-03-21T21:37:10;101511.9;;;18.3;60.0
72124;BME280;63818;37.134;-8.548;2023-03-21T21:41:56;101509.1;;;18.4;60.5
72124;BME280;63818;37.134;-8.548;2023-03-21T21:46:42;101521.6;;;18.4;60.7
72124;BME280;63818;37.134;-8.548;2023-03-21T21:51:28;101515.1;;;18.5;60.3
72124;BME280;63818;37.134;-8.548;2023-03-21T21:56:19;101521.5;;;18.4;60.5
72124;BME280;63818;37.134;-8.548;2023-03-21T22:01:08;101509.4;;;18.4;60.6
72124;BME280;63818;37.134;-8.548;2023-03-21T22:06:08;101521.3;;;18.4;60.2
72124;BME280;63818;37.134;-8.548;2023-03-21T22:10:55;101508.1;;;18.3;60.0
72124;BME280;63818;37.134;-8.548;2023-03-21T22:15:44;101511.1;;;18.3;60.0
72124;BME280;63818;37.134;-8.548;2023-03-21T22:20:30;101506.4;;;18.3;60.6
72124;BME280;63818;37.134;-8.548;2023-03-21T22:25:19;101512.6;;;18.3;60.6
72124;BME280;63818;37.134;-8.548;2023-03-21T22:30:07;101510.4;;;18.2;60.9
72124;BME280;63818;37.134;-8.548;2023-03-21T22:35:01;101505.9;;;18.3;60.9
72124;BME280;63818;37.134;-8.548;2023-03-21T22:39:47;101507.6;;;18.3;60.6
72124;BME280;63818;37.134;-8.548;2023-03-21T22:44:36;101515.7;;;18.3;60.8
72124;BME280;63818;37.134;-8.548;2023-03-21T22:49:22;101517.1;;;18.3;60.4
72124;BME280;63818;37.134;-8.548;2023-03-21T22:54:08;101516.7;;;18.2;59.9
72124;BME280;63818;37.134;-8.548;2023-03-21T22:58:55;101495.6;;;18.2;58.8
72124;BME280;63818;37.134;-8.548;2023-03-21T23:03:41;101491.8;;;18.2;58.5
72124;BME280;63818;37.134;-8.548;2023-03-21T23:08:27;101490.8;;;18.2;58.6
72124;BME280;63818;37.134;-8.548;2023-03-21T23:13:13;101491.5;;;18.1;58.7
72124;BME280;63818;37.134;-8.548;2023-03-21T23:18:00;101481.4;;;18.1;58.6
72124;BME280;63818;37.134;-8.548;2023-03-21T23:22:48;101488.0;;;18.1;58.5
72124;BME280;63818;37.134;-8.548;2023-03-21T23:27:34;101475.5;;;18.1;57.9
72124;BME280;63818;37.134;-8.548;2023-03-21T23:32:20;101470.0;;;18.1;57.3
72124;BME280;63818;37.134;-8.548;2023-03-21T23:37:06;101462.7;;;18.1;57.0
72124;BME280;63818;37.134;-8.548;2023-03-21T23:41:54;101465.0;;;18.1;56.5
72124;BME280;63818;37.134;-8.548;2023-03-21T23:46:40;101457.2;;;18.1;56.2
72124;BME280;63818;37.134;-8.548;2023-03-21T23:51:27;101457.8;;;18.1;57.3
72124;BME280;63818;37.134;-8.548;2023-03-21T23:56:18;101462.2;;;18.1;57.9
